createdAt,value
2018-07-25T00:01:05.967Z,3.43
2018-07-25T00:03:35.107Z,3.53
2018-07-25T00:06:04.226Z,3.63
2018-07-25T00:08:32.992Z,3.70
2018-07-25T00:11:02.172Z,3.77
2018-07-25T00:13:31.416Z,4.60
2018-07-25T00:16:00.879Z,3.60
2018-07-25T00:18:30.373Z,5.07
2018-07-25T00:21:00.059Z,4.03
2018-07-25T00:23:29.203Z,3.80
2018-07-25T00:26:03.872Z,3.70
2018-07-25T00:28:34.283Z,3.60
2018-07-25T00:31:03.279Z,3.60
2018-07-25T00:33:32.324Z,3.93
2018-07-25T00:36:01.491Z,3.73
2018-07-25T00:38:30.922Z,4.10
2018-07-25T00:41:00.258Z,4.13
2018-07-25T00:43:29.325Z,3.90
2018-07-25T00:45:58.976Z,3.83
2018-07-25T00:48:28.191Z,4.20
2018-07-25T00:50:57.290Z,5.10
2018-07-25T00:53:26.459Z,4.20
2018-07-25T00:55:55.615Z,3.80
2018-07-25T00:58:24.798Z,3.80
2018-07-25T01:00:54.063Z,3.90
2018-07-25T01:03:23.719Z,3.70
2018-07-25T01:05:52.815Z,3.80
2018-07-25T01:08:22.527Z,4.30
2018-07-25T01:10:51.722Z,4.87
2018-07-25T01:13:20.809Z,4.50
2018-07-25T01:15:50.054Z,4.27
2018-07-25T01:18:19.274Z,4.10
2018-07-25T01:20:48.349Z,3.97
2018-07-25T01:23:17.499Z,3.97
2018-07-25T01:25:46.614Z,4.37
2018-07-25T01:28:16.667Z,4.47
2018-07-25T01:30:45.723Z,3.73
2018-07-25T01:33:14.879Z,6.40
2018-07-25T01:35:43.954Z,4.40
2018-07-25T01:38:13.206Z,4.40
2018-07-25T01:40:42.693Z,4.23
2018-07-25T01:43:11.887Z,4.77
2018-07-25T01:45:41.125Z,5.00
2018-07-25T01:48:10.285Z,4.10
2018-07-25T01:50:39.605Z,4.90
2018-07-25T01:53:08.703Z,5.13
2018-07-25T01:55:38.127Z,4.97
2018-07-25T01:58:07.218Z,5.83
2018-07-25T02:00:37.013Z,4.83
2018-07-25T02:03:06.833Z,4.90
2018-07-25T02:05:36.072Z,4.37
2018-07-25T02:08:05.393Z,4.77
2018-07-25T02:10:38.238Z,4.30
2018-07-25T02:13:08.173Z,10.77
2018-07-25T02:15:37.302Z,8.93
2018-07-25T02:18:07.402Z,8.27
2018-07-25T02:20:37.326Z,10.37
2018-07-25T02:23:06.460Z,6.93
2018-07-25T02:25:35.686Z,8.07
2018-07-25T02:28:05.831Z,8.73
2018-07-25T02:30:35.023Z,8.40
2018-07-25T02:33:04.133Z,10.30
2018-07-25T02:35:33.572Z,11.47
2018-07-25T02:38:02.715Z,11.27
2018-07-25T02:40:31.911Z,12.10
2018-07-25T02:43:01.791Z,13.50
2018-07-25T02:45:36.283Z,14.97
2018-07-25T02:48:06.048Z,13.40
2018-07-25T02:50:35.570Z,12.03
2018-07-25T02:53:05.057Z,12.20
2018-07-25T02:55:33.840Z,11.17
2018-07-25T02:58:03.321Z,12.00
2018-07-25T03:00:32.663Z,11.43
2018-07-25T03:03:02.188Z,11.97
2018-07-25T03:05:31.184Z,12.80
2018-07-25T03:08:00.251Z,12.97
2018-07-25T03:10:29.972Z,12.17
2018-07-25T03:12:59.279Z,13.30
2018-07-25T03:15:28.903Z,11.73
2018-07-25T03:17:58.085Z,12.23
2018-07-25T03:20:27.687Z,12.03
2018-07-25T03:22:56.839Z,12.20
2018-07-25T03:25:26.528Z,12.27
2018-07-25T03:27:56.025Z,12.00
2018-07-25T03:30:25.153Z,12.97
2018-07-25T03:32:54.322Z,12.87
2018-07-25T03:35:23.511Z,12.67
2018-07-25T03:37:52.778Z,11.27
2018-07-25T03:40:22.170Z,11.73
2018-07-25T03:42:51.407Z,10.77
2018-07-25T03:45:20.548Z,10.90
2018-07-25T03:47:49.652Z,10.43
2018-07-25T03:50:18.761Z,9.80
2018-07-25T03:52:47.841Z,9.50
2018-07-25T03:55:16.993Z,9.27
2018-07-25T03:57:46.539Z,9.30
2018-07-25T04:00:15.815Z,8.60
2018-07-25T04:02:45.063Z,8.70
2018-07-25T04:05:16.549Z,8.70
2018-07-25T04:07:45.754Z,8.83
2018-07-25T04:10:15.254Z,8.60
2018-07-25T04:12:45.170Z,9.40
2018-07-25T04:15:14.362Z,9.50
2018-07-25T04:17:47.631Z,8.90
2018-07-25T04:20:17.600Z,9.20
2018-07-25T04:22:46.667Z,9.47
2018-07-25T04:25:16.077Z,9.63
2018-07-25T04:27:46.481Z,9.10
2018-07-25T04:30:17.269Z,9.00
2018-07-25T04:32:47.386Z,8.60
2018-07-25T04:35:17.051Z,8.97
2018-07-25T04:37:46.152Z,9.20
2018-07-25T04:40:15.240Z,9.23
2018-07-25T04:42:44.398Z,9.30
2018-07-25T04:45:13.572Z,8.87
2018-07-25T04:47:42.718Z,9.27
2018-07-25T04:50:11.932Z,8.70
2018-07-25T04:52:41.279Z,8.60
2018-07-25T04:55:10.401Z,8.50
2018-07-25T04:57:39.706Z,8.97
2018-07-25T05:00:09.069Z,8.50
2018-07-25T05:02:41.000Z,8.40
2018-07-25T05:05:10.353Z,8.63
2018-07-25T05:07:39.578Z,7.70
2018-07-25T05:10:09.877Z,7.13
2018-07-25T05:12:39.059Z,7.53
2018-07-25T05:15:08.410Z,8.43
2018-07-25T05:17:37.616Z,7.70
2018-07-25T05:20:07.754Z,6.73
2018-07-25T05:22:36.975Z,7.23
2018-07-25T05:25:06.141Z,7.37
2018-07-25T05:27:35.408Z,6.83
2018-07-25T05:30:04.921Z,7.37
2018-07-25T05:32:34.431Z,7.23
2018-07-25T05:35:04.817Z,7.57
2018-07-25T05:37:34.027Z,7.70
2018-07-25T05:40:03.244Z,7.40
2018-07-25T05:42:32.311Z,7.60
2018-07-25T05:45:01.804Z,8.00
2018-07-25T05:47:30.902Z,7.40
2018-07-25T05:50:00.275Z,8.23
2018-07-25T05:52:29.353Z,7.23
2018-07-25T05:54:58.551Z,8.20
2018-07-25T05:57:27.911Z,8.43
2018-07-25T05:59:57.064Z,9.70
2018-07-25T06:02:26.433Z,8.30
2018-07-25T06:04:55.664Z,8.47
2018-07-25T06:07:24.787Z,8.23
2018-07-25T06:09:53.959Z,9.23
2018-07-25T06:12:23.377Z,8.33
2018-07-25T06:14:52.749Z,7.00
2018-07-25T06:17:21.785Z,7.43
2018-07-25T06:19:51.001Z,7.10
2018-07-25T06:22:20.199Z,8.67
2018-07-25T06:24:49.497Z,7.93
2018-07-25T06:27:19.271Z,6.93
2018-07-25T06:29:48.539Z,7.20
2018-07-25T06:32:17.895Z,7.60
2018-07-25T06:34:47.106Z,7.13
2018-07-25T06:37:16.717Z,6.80
2018-07-25T06:39:45.879Z,7.87
2018-07-25T06:42:15.243Z,7.50
2018-07-25T06:44:45.306Z,7.00
2018-07-25T06:47:14.527Z,6.90
2018-07-25T06:49:43.793Z,7.50
2018-07-25T06:52:12.972Z,7.60
2018-07-25T06:54:42.144Z,7.00
2018-07-25T06:57:11.281Z,6.60
2018-07-25T06:59:40.287Z,6.57
2018-07-25T07:02:09.645Z,7.33
2018-07-25T07:04:38.716Z,6.80
2018-07-25T07:07:08.703Z,7.43
2018-07-25T07:09:37.853Z,7.40
2018-07-25T07:12:07.194Z,8.07
2018-07-25T07:14:36.341Z,7.23
2018-07-25T07:17:05.563Z,7.97
2018-07-25T07:19:34.726Z,7.00
2018-07-25T07:22:03.877Z,6.90
2018-07-25T07:24:32.874Z,7.17
2018-07-25T07:27:02.139Z,6.60
2018-07-25T07:29:31.606Z,7.37
2018-07-25T07:32:00.920Z,7.00
2018-07-25T07:34:30.123Z,6.90
2018-07-25T07:36:59.644Z,7.27
2018-07-25T07:39:28.857Z,7.10
2018-07-25T07:41:58.280Z,6.40
2018-07-25T07:44:28.768Z,7.50
2018-07-25T07:46:58.114Z,7.12
2018-07-25T07:49:27.377Z,6.80
2018-07-25T07:51:56.732Z,6.30
2018-07-25T07:54:26.089Z,6.23
2018-07-25T07:56:55.515Z,7.00
2018-07-25T07:59:24.961Z,5.90
2018-07-25T08:01:54.242Z,5.83
2018-07-25T08:04:23.800Z,5.97
2018-07-25T08:06:52.966Z,5.97
2018-07-25T08:09:22.213Z,5.87
2018-07-25T08:11:51.359Z,5.45
2018-07-25T08:14:20.497Z,6.55
2018-07-25T08:16:49.838Z,5.70
2018-07-25T08:19:19.095Z,5.40
2018-07-25T08:21:48.303Z,5.15
2018-07-25T08:24:17.410Z,5.47
2018-07-25T08:26:46.855Z,7.10
2018-07-25T08:29:16.013Z,5.78
2018-07-25T08:31:45.183Z,4.90
2018-07-25T08:34:14.613Z,6.83
2018-07-25T08:36:43.777Z,5.40
2018-07-25T08:39:14.339Z,5.60
2018-07-25T08:41:43.624Z,5.20
2018-07-25T08:44:12.684Z,5.15
2018-07-25T08:46:42.137Z,5.37
2018-07-25T08:49:11.427Z,4.95
2018-07-25T08:51:40.511Z,5.42
2018-07-25T08:54:09.396Z,8.88
2018-07-25T08:56:38.196Z,7.03
2018-07-25T08:59:07.090Z,5.65
2018-07-25T09:01:36.205Z,6.08
2018-07-25T09:04:05.663Z,5.40
2018-07-25T09:06:35.009Z,5.83
2018-07-25T09:09:07.042Z,5.30
2018-07-25T09:11:36.608Z,5.33
2018-07-25T09:14:07.287Z,5.30
2018-07-25T09:16:36.371Z,5.65
2018-07-25T09:19:06.150Z,5.42
2018-07-25T09:21:35.241Z,5.83
2018-07-25T09:24:04.572Z,5.97
2018-07-25T09:26:33.934Z,5.12
2018-07-25T09:29:03.166Z,6.03
2018-07-25T09:31:32.399Z,5.55
2018-07-25T09:34:02.091Z,5.97
2018-07-25T09:36:31.920Z,5.75
2018-07-25T09:39:01.077Z,5.85
2018-07-25T09:41:30.439Z,5.97
2018-07-25T09:43:59.812Z,5.70
2018-07-25T09:46:29.244Z,5.50
2018-07-25T09:48:58.305Z,6.00
2018-07-25T09:51:27.520Z,5.58
2018-07-25T09:53:56.655Z,5.65
2018-07-25T09:56:26.519Z,6.40
2018-07-25T09:58:55.879Z,6.92
2018-07-25T10:01:24.994Z,9.73
2018-07-25T10:03:54.920Z,6.25
2018-07-25T10:06:24.013Z,6.20
2018-07-25T10:08:54.300Z,7.00
2018-07-25T10:11:24.120Z,6.80
2018-07-25T10:13:54.595Z,6.35
2018-07-25T10:16:23.382Z,5.53
2018-07-25T10:18:52.861Z,6.10
2018-07-25T10:21:21.971Z,5.42
2018-07-25T10:23:51.310Z,6.47
2018-07-25T10:26:20.576Z,5.33
2018-07-25T10:28:49.920Z,6.28
2018-07-25T10:31:19.651Z,5.97
2018-07-25T10:33:48.692Z,6.10
2018-07-25T10:36:17.802Z,6.50
2018-07-25T10:38:47.372Z,6.25
2018-07-25T10:41:16.570Z,5.67
2018-07-25T10:43:46.457Z,6.83
2018-07-25T10:46:16.617Z,5.87
2018-07-25T10:48:45.928Z,5.67
2018-07-25T10:51:15.121Z,6.40
2018-07-25T10:53:44.237Z,6.90
2018-07-25T10:56:13.462Z,6.22
2018-07-25T10:58:42.729Z,6.55
2018-07-25T11:01:11.943Z,6.28
2018-07-25T11:03:41.537Z,6.65
2018-07-25T11:06:11.874Z,6.25
2018-07-25T11:08:40.962Z,6.45
2018-07-25T11:11:10.100Z,6.20
2018-07-25T11:13:39.334Z,6.20
2018-07-25T11:16:08.759Z,7.83
2018-07-25T11:18:38.627Z,7.00
2018-07-25T11:21:08.379Z,6.65
2018-07-25T11:23:37.605Z,7.12
2018-07-25T11:26:06.879Z,6.92
2018-07-25T11:28:35.764Z,6.95
2018-07-25T11:31:04.835Z,6.25
2018-07-25T11:33:34.102Z,5.95
2018-07-25T11:36:03.752Z,6.12
2018-07-25T11:38:32.943Z,6.33
2018-07-25T11:41:02.245Z,6.90
2018-07-25T11:43:31.310Z,6.60
2018-07-25T11:46:00.497Z,6.25
2018-07-25T11:48:30.819Z,6.85
2018-07-25T11:50:59.983Z,6.65
2018-07-25T11:53:29.100Z,7.37
2018-07-25T11:55:58.377Z,7.05
2018-07-25T11:58:27.681Z,7.28
2018-07-25T12:00:56.992Z,6.80
2018-07-25T12:03:26.090Z,7.70
2018-07-25T12:05:55.295Z,6.28
2018-07-25T12:08:24.543Z,6.60
2018-07-25T12:10:53.814Z,7.10
2018-07-25T12:13:23.127Z,7.03
2018-07-25T12:15:52.380Z,7.50
2018-07-25T12:18:21.591Z,7.80
2018-07-25T12:20:50.667Z,7.70
2018-07-25T12:23:19.971Z,7.30
2018-07-25T12:25:49.174Z,6.60
2018-07-25T12:28:18.303Z,7.25
2018-07-25T12:30:47.402Z,6.85
2018-07-25T12:33:16.631Z,7.83
2018-07-25T12:35:45.646Z,7.03
2018-07-25T12:38:14.697Z,7.50
2018-07-25T12:40:44.554Z,6.90
2018-07-25T12:43:13.710Z,7.83
2018-07-25T12:45:43.257Z,7.08
2018-07-25T12:48:13.287Z,7.25
2018-07-25T12:50:42.353Z,7.45
2018-07-25T12:53:11.581Z,7.17
2018-07-25T12:55:40.667Z,7.47
2018-07-25T12:58:10.122Z,6.80
2018-07-25T13:00:39.258Z,6.50
2018-07-25T13:03:08.379Z,7.55
2018-07-25T13:05:37.518Z,7.50
2018-07-25T13:08:06.642Z,7.37
2018-07-25T13:10:35.981Z,7.00
2018-07-25T13:13:05.129Z,7.60
2018-07-25T13:15:34.467Z,7.20
2018-07-25T13:18:03.693Z,6.70
2018-07-25T13:20:33.134Z,6.85
2018-07-25T13:23:02.567Z,7.25
2018-07-25T13:25:31.766Z,7.50
2018-07-25T13:28:01.021Z,7.60
2018-07-25T13:30:30.434Z,6.70
2018-07-25T13:32:59.736Z,7.83
2018-07-25T13:35:29.053Z,6.75
2018-07-25T13:37:58.529Z,6.30
2018-07-25T13:40:28.794Z,6.62
2018-07-25T13:42:58.474Z,7.30
2018-07-25T13:45:27.953Z,7.03
2018-07-25T13:47:57.074Z,7.12
2018-07-25T13:50:26.565Z,8.25
2018-07-25T13:52:55.917Z,6.97
2018-07-25T13:55:25.210Z,7.05
2018-07-25T13:57:54.559Z,8.28
2018-07-25T14:00:24.178Z,7.58
2018-07-25T14:02:53.328Z,6.67
2018-07-25T14:05:22.602Z,7.00
2018-07-25T14:07:52.486Z,6.87
2018-07-25T14:10:21.844Z,7.33
2018-07-25T14:12:51.188Z,7.72
2018-07-25T14:15:20.402Z,8.15
2018-07-25T14:17:50.246Z,7.20
2018-07-25T14:20:19.635Z,8.60
2018-07-25T14:22:48.782Z,7.42
2018-07-25T14:25:18.054Z,6.55
2018-07-25T14:27:47.494Z,7.08
2018-07-25T14:30:16.926Z,6.92
2018-07-25T14:32:45.753Z,6.90
2018-07-25T14:35:14.881Z,7.10
2018-07-25T14:37:44.076Z,6.53
2018-07-25T14:40:13.273Z,6.67
2018-07-25T14:42:42.587Z,7.72
2018-07-25T14:45:11.979Z,7.35
2018-07-25T14:47:41.384Z,6.70
2018-07-25T14:50:10.511Z,6.70
2018-07-25T14:52:39.773Z,6.80
2018-07-25T14:55:09.018Z,7.28
2018-07-25T14:57:38.253Z,7.58
2018-07-25T15:00:07.791Z,7.08
2018-07-25T15:02:37.188Z,7.08
2018-07-25T15:05:06.253Z,7.00
2018-07-25T15:07:35.525Z,6.58
2018-07-25T15:10:05.558Z,6.55
2018-07-25T15:12:39.916Z,6.20
2018-07-25T15:15:09.879Z,6.08
2018-07-25T15:17:39.119Z,5.33
2018-07-25T15:20:09.634Z,6.25
2018-07-25T15:22:39.567Z,6.85
2018-07-25T15:25:09.237Z,6.47
2018-07-25T15:27:39.199Z,6.65
2018-07-25T15:30:09.752Z,5.70
2018-07-25T15:32:38.923Z,6.30
2018-07-25T15:35:08.782Z,5.80
2018-07-25T15:37:38.397Z,5.97
2018-07-25T15:40:08.207Z,5.78
2018-07-25T15:42:37.324Z,5.70
2018-07-25T15:45:06.946Z,5.90
2018-07-25T15:47:36.241Z,5.58
2018-07-25T15:50:06.034Z,5.97
2018-07-25T15:52:35.265Z,6.95
2018-07-25T15:55:04.602Z,5.67
2018-07-25T15:57:34.179Z,5.85
2018-07-25T16:00:03.485Z,6.70
2018-07-25T16:02:32.854Z,5.45
2018-07-25T16:05:02.172Z,5.10
2018-07-25T16:07:31.341Z,5.33
2018-07-25T16:10:00.557Z,5.30
2018-07-25T16:12:29.621Z,5.87
2018-07-25T16:14:58.687Z,5.80
2018-07-25T16:17:28.024Z,5.28
2018-07-25T16:19:57.183Z,5.37
2018-07-25T16:22:26.707Z,8.10
2018-07-25T16:24:56.029Z,5.62
2018-07-25T16:27:25.371Z,5.30
2018-07-25T16:29:54.759Z,6.75
2018-07-25T16:32:25.071Z,6.75
2018-07-25T16:34:54.227Z,5.25
2018-07-25T16:37:23.334Z,5.30
2018-07-25T16:39:52.737Z,5.47
2018-07-25T16:42:22.484Z,5.35
2018-07-25T16:44:51.731Z,5.20
2018-07-25T16:47:20.909Z,5.40
2018-07-25T16:49:50.250Z,7.03
2018-07-25T16:52:19.479Z,5.37
2018-07-25T16:54:48.850Z,5.60
2018-07-25T16:57:18.509Z,5.75
2018-07-25T16:59:47.764Z,4.70
2018-07-25T17:02:16.992Z,7.85
2018-07-25T17:04:46.167Z,5.28
2018-07-25T17:07:15.472Z,5.33
2018-07-25T17:09:44.681Z,5.12
2018-07-25T17:12:13.839Z,5.85
2018-07-25T17:14:43.023Z,5.70
2018-07-25T17:19:46.980Z,6.05
2018-07-25T17:22:15.914Z,6.37
2018-07-25T17:24:45.181Z,5.37
2018-07-25T17:27:14.489Z,5.55
2018-07-25T17:29:44.254Z,5.50
2018-07-25T17:32:13.791Z,4.92
2018-07-25T17:34:43.042Z,5.55
2018-07-25T17:37:12.195Z,5.97
2018-07-25T17:39:41.837Z,6.10
2018-07-25T17:42:11.240Z,5.30
2018-07-25T17:44:40.725Z,5.15
2018-07-25T17:47:10.582Z,4.58
2018-07-25T17:49:39.686Z,5.30
2018-07-25T17:52:08.992Z,4.97
2018-07-25T17:54:38.152Z,5.05
2018-07-25T17:57:07.331Z,5.20
2018-07-25T17:59:36.645Z,4.70
2018-07-25T18:02:05.820Z,5.12
2018-07-25T18:04:34.953Z,5.45
2018-07-25T18:07:05.090Z,5.42
2018-07-25T18:09:34.937Z,5.30
2018-07-25T18:12:04.323Z,5.37
2018-07-25T18:14:33.527Z,5.28
2018-07-25T18:17:03.003Z,5.72
2018-07-25T18:19:33.206Z,5.70
2018-07-25T18:22:02.811Z,6.08
2018-07-25T18:24:32.005Z,4.95
2018-07-25T18:27:01.676Z,5.72
2018-07-25T18:29:30.876Z,5.53
2018-07-25T18:32:00.051Z,5.17
2018-07-25T18:34:29.205Z,5.62
2018-07-25T18:36:59.128Z,5.50
2018-07-25T18:39:28.428Z,5.08
2018-07-25T18:41:58.203Z,5.08
2018-07-25T18:44:27.272Z,5.15
2018-07-25T18:46:56.427Z,5.22
2018-07-25T18:49:25.558Z,6.40
2018-07-25T18:51:54.882Z,6.00
2018-07-25T18:54:24.073Z,5.65
2018-07-25T18:56:53.271Z,5.83
2018-07-25T18:59:22.693Z,5.30
2018-07-25T19:01:51.797Z,5.20
2018-07-25T19:04:20.918Z,5.65
2018-07-25T19:06:50.123Z,5.45
2018-07-25T19:09:19.204Z,12.68
2018-07-25T19:11:48.346Z,9.13
2018-07-25T19:14:22.967Z,5.37
2018-07-25T19:16:52.619Z,6.17
2018-07-25T19:19:21.885Z,5.97
2018-07-25T19:21:51.008Z,6.00
2018-07-25T19:24:20.213Z,7.80
2018-07-25T19:26:50.137Z,5.92
2018-07-25T19:29:19.351Z,7.40
2018-07-25T19:31:48.617Z,6.78
2018-07-25T19:34:17.843Z,6.85
2018-07-25T19:36:47.421Z,5.83
2018-07-25T19:39:16.917Z,5.25
2018-07-25T19:41:46.015Z,5.03
2018-07-25T19:44:15.347Z,6.05
2018-07-25T19:46:44.529Z,5.47
2018-07-25T19:49:13.771Z,5.92
2018-07-25T19:51:42.999Z,7.45
2018-07-25T19:54:12.327Z,5.25
2018-07-25T19:56:41.176Z,5.53
2018-07-25T19:59:10.392Z,4.85
2018-07-25T20:01:39.572Z,5.42
2018-07-25T20:04:08.819Z,4.78
2018-07-25T20:06:38.006Z,5.62
2018-07-25T20:09:08.372Z,4.90
2018-07-25T20:11:37.742Z,5.85
2018-07-25T20:14:11.963Z,6.30
2018-07-25T20:16:41.262Z,4.83
2018-07-25T20:19:10.543Z,5.60
2018-07-25T20:21:39.777Z,5.62
2018-07-25T20:24:09.490Z,4.92
2018-07-25T20:26:39.028Z,5.00
2018-07-25T20:29:08.525Z,5.00
2018-07-25T20:31:38.108Z,5.15
2018-07-25T20:34:07.355Z,6.47
2018-07-25T20:36:36.605Z,4.70
2018-07-25T20:39:09.499Z,5.37
2018-07-25T20:41:38.637Z,4.67
2018-07-25T20:44:08.672Z,4.70
2018-07-25T20:47:10.009Z,5.47
2018-07-25T20:49:39.015Z,4.37
2018-07-25T20:52:08.389Z,4.50
2018-07-25T20:54:37.666Z,5.35
2018-07-25T20:57:10.174Z,4.83
2018-07-25T20:59:39.997Z,5.85
2018-07-25T21:02:10.055Z,6.45
2018-07-25T21:04:42.247Z,4.55
2018-07-25T21:07:11.712Z,4.92
2018-07-25T21:09:41.013Z,5.72
2018-07-25T21:12:09.934Z,6.28
2018-07-25T21:14:39.035Z,6.42
2018-07-25T21:17:08.299Z,6.25
2018-07-25T21:19:37.451Z,6.92
2018-07-25T21:22:06.495Z,5.55
2018-07-25T21:24:36.889Z,5.78
2018-07-25T21:27:10.082Z,5.12
2018-07-25T21:29:39.395Z,5.20
2018-07-25T21:32:08.513Z,5.25
2018-07-25T21:34:37.678Z,6.85
2018-07-25T21:37:06.869Z,5.92
2018-07-25T21:39:36.070Z,6.45
2018-07-25T21:42:05.322Z,8.00
2018-07-25T21:44:34.763Z,6.13
2018-07-25T21:47:04.269Z,6.10
2018-07-25T21:49:33.485Z,5.37
2018-07-25T21:52:02.615Z,7.55
2018-07-25T21:54:32.548Z,7.07
2018-07-25T21:57:01.832Z,6.03
2018-07-25T21:59:31.089Z,6.20
2018-07-25T22:02:00.319Z,6.17
2018-07-25T22:04:29.673Z,6.90
2018-07-25T22:06:59.045Z,6.33
2018-07-25T22:09:28.154Z,5.72
2018-07-25T22:11:57.430Z,6.07
2018-07-25T22:14:26.811Z,6.37
2018-07-25T22:16:56.014Z,6.00
2018-07-25T22:19:31.534Z,5.47
2018-07-25T22:22:00.661Z,5.70
2018-07-25T22:24:30.100Z,5.77
2018-07-25T22:26:59.217Z,5.80
2018-07-25T22:29:28.444Z,5.87
2018-07-25T22:31:57.736Z,5.97
2018-07-25T22:34:26.925Z,5.57
2018-07-25T22:36:56.148Z,5.67
2018-07-25T22:39:25.317Z,5.90
2018-07-25T22:41:54.814Z,5.93
2018-07-25T22:44:24.028Z,6.10
2018-07-25T22:46:53.313Z,8.60
2018-07-25T22:49:22.627Z,6.00
2018-07-25T22:51:51.956Z,6.03
2018-07-25T22:54:21.128Z,6.33
2018-07-25T22:56:50.496Z,6.00
2018-07-25T22:59:19.873Z,6.20
2018-07-25T23:01:48.987Z,6.37
2018-07-25T23:04:18.145Z,6.80
2018-07-25T23:06:47.463Z,6.30
2018-07-25T23:09:16.221Z,5.90
2018-07-25T23:11:45.291Z,6.50
2018-07-25T23:14:14.679Z,6.77
2018-07-25T23:16:44.655Z,6.87
2018-07-25T23:19:13.941Z,6.97
2018-07-25T23:21:43.159Z,6.40
2018-07-25T23:24:13.015Z,6.57
2018-07-25T23:26:42.140Z,8.00
2018-07-25T23:29:11.554Z,6.87
2018-07-25T23:31:40.836Z,6.83
2018-07-25T23:34:09.931Z,6.43
2018-07-25T23:36:39.132Z,6.57
2018-07-25T23:39:09.988Z,6.93
2018-07-25T23:41:39.598Z,7.47
2018-07-25T23:44:09.003Z,7.53
2018-07-25T23:46:38.704Z,7.73
2018-07-25T23:49:08.144Z,7.40
2018-07-25T23:51:37.274Z,6.97
2018-07-25T23:54:06.578Z,6.90
2018-07-25T23:56:35.785Z,6.70
2018-07-25T23:59:05.403Z,7.10
